North Mountain, Pennsylvania
Current Conditions -  °F | °C
As of 9:54 AM on Sunday 21 Dec 2014 (Local Time) from KIPT Reporting Station
Overcast Overcast  
Wind Chill: 26°   Ceiling: 2600
Heat Index: 32°   Visibility: 10mi
Dew Point: 20°   Wind: 7mph
Humidity: 61%   Direction: 300°WNW
Pressure: 30.34"   Gusts: NA
Location:  41.3719°N, 76.499°W
Report Text: KIPT 211454Z 30006KT 10SM OVC026 00/M07 A3034 RMK AO2 SLP280 T00001067 51014
Loading
Personal Weather Stations






























Interactive Weather Map New forecast layout! Learn more

10-Day Weather Forecast

Advertisements
Track Severe Weather on mobile